sensor_id;sensor_type;location;lat;lon;timestamp;P1;durP1;ratioP1;P2;durP2;ratioP2
10896;SDS011;5501;51.176;6.470;2022-12-29T00:01:28;0.70;;;0.70;;
10896;SDS011;5501;51.176;6.470;2022-12-29T00:06:30;1.27;;;0.40;;
10896;SDS011;5501;51.176;6.470;2022-12-29T00:11:31;1.17;;;0.47;;
10896;SDS011;5501;51.176;6.470;2022-12-29T00:16:33;0.47;;;0.47;;
10896;SDS011;5501;51.176;6.470;2022-12-29T00:21:35;0.40;;;0.40;;
10896;SDS011;5501;51.176;6.470;2022-12-29T00:27:08;1.17;;;0.50;;
10896;SDS011;5501;51.176;6.470;2022-12-29T00:32:29;1.67;;;0.40;;
10896;SDS011;5501;51.176;6.470;2022-12-29T00:37:49;0.30;;;0.30;;
10896;SDS011;5501;51.176;6.470;2022-12-29T00:43:10;0.50;;;0.40;;
10896;SDS011;5501;51.176;6.470;2022-12-29T00:48:30;0.25;;;0.25;;
10896;SDS011;5501;51.176;6.470;2022-12-29T00:53:50;0.80;;;0.32;;
10896;SDS011;5501;51.176;6.470;2022-12-29T00:58:51;0.38;;;0.30;;
10896;SDS011;5501;51.176;6.470;2022-12-29T01:03:52;0.30;;;0.30;;
10896;SDS011;5501;51.176;6.470;2022-12-29T01:09:02;0.15;;;0.15;;
10896;SDS011;5501;51.176;6.470;2022-12-29T01:14:22;0.57;;;0.40;;
10896;SDS011;5501;51.176;6.470;2022-12-29T01:19:24;0.28;;;0.28;;
10896;SDS011;5501;51.176;6.470;2022-12-29T01:24:25;0.65;;;0.47;;
10896;SDS011;5501;51.176;6.470;2022-12-29T01:29:27;0.50;;;0.50;;
10896;SDS011;5501;51.176;6.470;2022-12-29T01:34:28;0.80;;;0.52;;
10896;SDS011;5501;51.176;6.470;2022-12-29T01:39:30;1.45;;;0.90;;
10896;SDS011;5501;51.176;6.470;2022-12-29T01:49:47;0.70;;;0.52;;
10896;SDS011;5501;51.176;6.470;2022-12-29T01:54:50;0.90;;;0.80;;
10896;SDS011;5501;51.176;6.470;2022-12-29T01:59:56;1.02;;;0.45;;
10896;SDS011;5501;51.176;6.470;2022-12-29T02:04:59;1.05;;;0.50;;
10896;SDS011;5501;51.176;6.470;2022-12-29T02:10:05;0.98;;;0.45;;
10896;SDS011;5501;51.176;6.470;2022-12-29T02:15:07;0.70;;;0.57;;
10896;SDS011;5501;51.176;6.470;2022-12-29T02:25:49;1.50;;;0.60;;
10896;SDS011;5501;51.176;6.470;2022-12-29T02:31:12;0.50;;;0.50;;
10896;SDS011;5501;51.176;6.470;2022-12-29T02:36:21;0.50;;;0.50;;
10896;SDS011;5501;51.176;6.470;2022-12-29T02:41:33;0.82;;;0.52;;
10896;SDS011;5501;51.176;6.470;2022-12-29T02:46:41;0.60;;;0.60;;
10896;SDS011;5501;51.176;6.470;2022-12-29T02:51:55;0.52;;;0.40;;
10896;SDS011;5501;51.176;6.470;2022-12-29T02:56:58;1.70;;;0.70;;
10896;SDS011;5501;51.176;6.470;2022-12-29T03:18:06;0.20;;;0.20;;
10896;SDS011;5501;51.176;6.470;2022-12-29T03:23:09;2.17;;;0.38;;
10896;SDS011;5501;51.176;6.470;2022-12-29T03:28:12;1.00;;;0.52;;
10896;SDS011;5501;51.176;6.470;2022-12-29T03:33:21;0.22;;;0.22;;
10896;SDS011;5501;51.176;6.470;2022-12-29T03:38:30;0.90;;;0.60;;
10896;SDS011;5501;51.176;6.470;2022-12-29T03:43:34;0.80;;;0.35;;
10896;SDS011;5501;51.176;6.470;2022-12-29T03:48:36;0.32;;;0.32;;
10896;SDS011;5501;51.176;6.470;2022-12-29T03:53:37;1.02;;;0.40;;
10896;SDS011;5501;51.176;6.470;2022-12-29T03:58:39;1.75;;;0.60;;
10896;SDS011;5501;51.176;6.470;2022-12-29T04:03:52;0.82;;;0.50;;
10896;SDS011;5501;51.176;6.470;2022-12-29T04:08:54;0.52;;;0.40;;
10896;SDS011;5501;51.176;6.470;2022-12-29T04:13:55;0.77;;;0.50;;
10896;SDS011;5501;51.176;6.470;2022-12-29T04:18:59;1.85;;;0.50;;
10896;SDS011;5501;51.176;6.470;2022-12-29T04:24:01;1.25;;;0.40;;
10896;SDS011;5501;51.176;6.470;2022-12-29T04:29:02;0.50;;;0.50;;
10896;SDS011;5501;51.176;6.470;2022-12-29T04:34:29;3.42;;;0.47;;
10896;SDS011;5501;51.176;6.470;2022-12-29T04:39:32;0.57;;;0.40;;
10896;SDS011;5501;51.176;6.470;2022-12-29T04:44:35;3.10;;;0.80;;
10896;SDS011;5501;51.176;6.470;2022-12-29T04:49:48;1.23;;;0.70;;
10896;SDS011;5501;51.176;6.470;2022-12-29T04:55:25;0.55;;;0.52;;
10896;SDS011;5501;51.176;6.470;2022-12-29T05:00:27;1.55;;;0.60;;
10896;SDS011;5501;51.176;6.470;2022-12-29T05:05:28;0.88;;;0.47;;
10896;SDS011;5501;51.176;6.470;2022-12-29T05:10:31;0.82;;;0.70;;
10896;SDS011;5501;51.176;6.470;2022-12-29T05:15:37;1.25;;;0.88;;
10896;SDS011;5501;51.176;6.470;2022-12-29T05:20:39;3.03;;;0.70;;
10896;SDS011;5501;51.176;6.470;2022-12-29T05:25:41;1.27;;;0.85;;
10896;SDS011;5501;51.176;6.470;2022-12-29T05:31:06;3.15;;;0.63;;
10896;SDS011;5501;51.176;6.470;2022-12-29T05:36:09;1.20;;;0.80;;
10896;SDS011;5501;51.176;6.470;2022-12-29T05:41:14;0.73;;;0.68;;
10896;SDS011;5501;51.176;6.470;2022-12-29T05:46:33;2.40;;;0.55;;
10896;SDS011;5501;51.176;6.470;2022-12-29T05:51:49;1.65;;;0.60;;
10896;SDS011;5501;51.176;6.470;2022-12-29T05:56:50;0.70;;;0.70;;
10896;SDS011;5501;51.176;6.470;2022-12-29T06:01:52;2.20;;;0.82;;
10896;SDS011;5501;51.176;6.470;2022-12-29T06:06:54;0.38;;;0.38;;
10896;SDS011;5501;51.176;6.470;2022-12-29T06:12:08;0.65;;;0.65;;
10896;SDS011;5501;51.176;6.470;2022-12-29T06:17:11;3.63;;;0.50;;
10896;SDS011;5501;51.176;6.470;2022-12-29T06:22:14;2.90;;;0.63;;
10896;SDS011;5501;51.176;6.470;2022-12-29T06:27:16;0.85;;;0.60;;
10896;SDS011;5501;51.176;6.470;2022-12-29T06:32:18;1.95;;;0.45;;
10896;SDS011;5501;51.176;6.470;2022-12-29T06:37:24;1.67;;;0.57;;
10896;SDS011;5501;51.176;6.470;2022-12-29T06:42:25;3.20;;;0.90;;
10896;SDS011;5501;51.176;6.470;2022-12-29T06:47:50;2.28;;;0.90;;
10896;SDS011;5501;51.176;6.470;2022-12-29T06:52:51;2.33;;;0.60;;
10896;SDS011;5501;51.176;6.470;2022-12-29T06:57:56;1.30;;;0.50;;
10896;SDS011;5501;51.176;6.470;2022-12-29T07:02:57;3.22;;;0.75;;
10896;SDS011;5501;51.176;6.470;2022-12-29T07:07:59;2.70;;;0.80;;
10896;SDS011;5501;51.176;6.470;2022-12-29T07:13:01;1.38;;;0.68;;
10896;SDS011;5501;51.176;6.470;2022-12-29T07:18:03;2.70;;;0.95;;
10896;SDS011;5501;51.176;6.470;2022-12-29T07:23:04;1.90;;;0.77;;
10896;SDS011;5501;51.176;6.470;2022-12-29T07:28:06;0.68;;;0.68;;
10896;SDS011;5501;51.176;6.470;2022-12-29T07:33:08;3.38;;;0.98;;
10896;SDS011;5501;51.176;6.470;2022-12-29T07:38:09;5.25;;;0.77;;
10896;SDS011;5501;51.176;6.470;2022-12-29T07:43:10;5.82;;;0.98;;
10896;SDS011;5501;51.176;6.470;2022-12-29T07:48:24;3.03;;;1.23;;
10896;SDS011;5501;51.176;6.470;2022-12-29T07:53:25;2.70;;;1.10;;
10896;SDS011;5501;51.176;6.470;2022-12-29T07:58:27;5.03;;;0.80;;
10896;SDS011;5501;51.176;6.470;2022-12-29T08:03:28;4.88;;;0.90;;
10896;SDS011;5501;51.176;6.470;2022-12-29T08:08:30;2.42;;;1.50;;
10896;SDS011;5501;51.176;6.470;2022-12-29T08:13:31;3.03;;;0.90;;
10896;SDS011;5501;51.176;6.470;2022-12-29T08:18:32;2.05;;;0.88;;
10896;SDS011;5501;51.176;6.470;2022-12-29T08:23:34;3.38;;;1.17;;
10896;SDS011;5501;51.176;6.470;2022-12-29T08:28:35;2.80;;;1.08;;
10896;SDS011;5501;51.176;6.470;2022-12-29T08:33:36;1.20;;;0.73;;
10896;SDS011;5501;51.176;6.470;2022-12-29T08:38:38;1.25;;;0.90;;
10896;SDS011;5501;51.176;6.470;2022-12-29T08:43:39;2.88;;;0.75;;
10896;SDS011;5501;51.176;6.470;2022-12-29T08:48:41;4.28;;;0.93;;
10896;SDS011;5501;51.176;6.470;2022-12-29T08:53:42;2.33;;;0.60;;
10896;SDS011;5501;51.176;6.470;2022-12-29T08:58:43;2.83;;;0.73;;
10896;SDS011;5501;51.176;6.470;2022-12-29T09:03:45;1.38;;;0.63;;
10896;SDS011;5501;51.176;6.470;2022-12-29T09:09:07;3.53;;;0.98;;
10896;SDS011;5501;51.176;6.470;2022-12-29T09:14:08;3.85;;;0.98;;
10896;SDS011;5501;51.176;6.470;2022-12-29T09:19:10;5.35;;;0.80;;
10896;SDS011;5501;51.176;6.470;2022-12-29T09:24:11;6.13;;;1.20;;
10896;SDS011;5501;51.176;6.470;2022-12-29T09:29:13;3.47;;;1.05;;
10896;SDS011;5501;51.176;6.470;2022-12-29T09:34:14;1.95;;;1.48;;
10896;SDS011;5501;51.176;6.470;2022-12-29T09:39:16;3.42;;;1.00;;
10896;SDS011;5501;51.176;6.470;2022-12-29T09:44:31;4.63;;;0.77;;
10896;SDS011;5501;51.176;6.470;2022-12-29T09:54:57;4.57;;;0.85;;
10896;SDS011;5501;51.176;6.470;2022-12-29T10:00:11;4.55;;;1.08;;
10896;SDS011;5501;51.176;6.470;2022-12-29T10:05:31;4.80;;;1.40;;
10896;SDS011;5501;51.176;6.470;2022-12-29T10:16:09;3.22;;;0.77;;
10896;SDS011;5501;51.176;6.470;2022-12-29T10:21:05;4.22;;;0.93;;
10896;SDS011;5501;51.176;6.470;2022-12-29T10:26:18;4.47;;;0.95;;
10896;SDS011;5501;51.176;6.470;2022-12-29T10:31:23;6.35;;;1.45;;
10896;SDS011;5501;51.176;6.470;2022-12-29T10:36:35;3.83;;;1.00;;
10896;SDS011;5501;51.176;6.470;2022-12-29T10:41:49;2.53;;;1.08;;
10896;SDS011;5501;51.176;6.470;2022-12-29T10:47:15;2.35;;;1.10;;
10896;SDS011;5501;51.176;6.470;2022-12-29T10:52:15;0.88;;;0.65;;
10896;SDS011;5501;51.176;6.470;2022-12-29T10:57:25;3.85;;;1.05;;
10896;SDS011;5501;51.176;6.470;2022-12-29T11:07:48;4.18;;;0.98;;
10896;SDS011;5501;51.176;6.470;2022-12-29T11:12:58;2.40;;;1.00;;
10896;SDS011;5501;51.176;6.470;2022-12-29T11:18:00;6.45;;;1.17;;
10896;SDS011;5501;51.176;6.470;2022-12-29T11:23:02;4.57;;;1.13;;
10896;SDS011;5501;51.176;6.470;2022-12-29T11:28:14;3.15;;;1.27;;
10896;SDS011;5501;51.176;6.470;2022-12-29T11:33:16;4.03;;;1.27;;
10896;SDS011;5501;51.176;6.470;2022-12-29T11:38:22;5.10;;;1.40;;
10896;SDS011;5501;51.176;6.470;2022-12-29T11:43:27;6.78;;;1.25;;
10896;SDS011;5501;51.176;6.470;2022-12-29T11:48:49;8.13;;;1.45;;
10896;SDS011;5501;51.176;6.470;2022-12-29T11:58:51;3.38;;;1.27;;
10896;SDS011;5501;51.176;6.470;2022-12-29T12:09:14;3.13;;;0.80;;
10896;SDS011;5501;51.176;6.470;2022-12-29T12:14:19;5.28;;;1.40;;
10896;SDS011;5501;51.176;6.470;2022-12-29T12:19:46;5.90;;;1.00;;
10896;SDS011;5501;51.176;6.470;2022-12-29T12:24:54;3.78;;;1.08;;
10896;SDS011;5501;51.176;6.470;2022-12-29T12:30:11;6.40;;;0.98;;
10896;SDS011;5501;51.176;6.470;2022-12-29T12:35:15;2.50;;;0.80;;
10896;SDS011;5501;51.176;6.470;2022-12-29T12:40:35;3.38;;;1.35;;
10896;SDS011;5501;51.176;6.470;2022-12-29T12:50:45;2.67;;;0.80;;
10896;SDS011;5501;51.176;6.470;2022-12-29T13:01:14;3.58;;;1.20;;
10896;SDS011;5501;51.176;6.470;2022-12-29T13:06:24;2.13;;;0.93;;
10896;SDS011;5501;51.176;6.470;2022-12-29T13:16:39;2.05;;;0.70;;
10896;SDS011;5501;51.176;6.470;2022-12-29T13:21:57;6.28;;;1.30;;
10896;SDS011;5501;51.176;6.470;2022-12-29T13:32:18;4.95;;;1.48;;
10896;SDS011;5501;51.176;6.470;2022-12-29T13:37:25;2.28;;;1.02;;
10896;SDS011;5501;51.176;6.470;2022-12-29T13:42:27;6.00;;;1.20;;
10896;SDS011;5501;51.176;6.470;2022-12-29T13:52:58;3.33;;;1.08;;
10896;SDS011;5501;51.176;6.470;2022-12-29T14:03:12;5.03;;;0.98;;
10896;SDS011;5501;51.176;6.470;2022-12-29T14:08:18;1.88;;;0.80;;
10896;SDS011;5501;51.176;6.470;2022-12-29T14:13:20;2.03;;;0.98;;
10896;SDS011;5501;51.176;6.470;2022-12-29T14:18:23;4.43;;;0.95;;
10896;SDS011;5501;51.176;6.470;2022-12-29T14:23:26;1.20;;;0.80;;
10896;SDS011;5501;51.176;6.470;2022-12-29T14:28:31;3.90;;;1.50;;
10896;SDS011;5501;51.176;6.470;2022-12-29T14:33:33;2.90;;;0.90;;
10896;SDS011;5501;51.176;6.470;2022-12-29T14:38:36;3.38;;;1.45;;
10896;SDS011;5501;51.176;6.470;2022-12-29T14:43:52;3.35;;;1.05;;
10896;SDS011;5501;51.176;6.470;2022-12-29T14:48:55;2.13;;;0.93;;
10896;SDS011;5501;51.176;6.470;2022-12-29T14:53:57;7.30;;;1.08;;
10896;SDS011;5501;51.176;6.470;2022-12-29T14:59:00;4.30;;;1.10;;
10896;SDS011;5501;51.176;6.470;2022-12-29T15:04:05;3.10;;;1.30;;
10896;SDS011;5501;51.176;6.470;2022-12-29T15:19:29;2.17;;;1.27;;
10896;SDS011;5501;51.176;6.470;2022-12-29T15:24:31;8.95;;;1.30;;
10896;SDS011;5501;51.176;6.470;2022-12-29T15:29:42;3.83;;;1.30;;
10896;SDS011;5501;51.176;6.470;2022-12-29T15:34:44;3.75;;;1.17;;
10896;SDS011;5501;51.176;6.470;2022-12-29T15:39:46;2.92;;;1.00;;
10896;SDS011;5501;51.176;6.470;2022-12-29T15:44:47;7.97;;;1.08;;
10896;SDS011;5501;51.176;6.470;2022-12-29T15:50:05;5.20;;;1.70;;
10896;SDS011;5501;51.176;6.470;2022-12-29T15:55:10;4.97;;;1.63;;
10896;SDS011;5501;51.176;6.470;2022-12-29T16:00:24;3.13;;;1.90;;
10896;SDS011;5501;51.176;6.470;2022-12-29T16:05:37;5.57;;;1.27;;
10896;SDS011;5501;51.176;6.470;2022-12-29T16:10:39;2.22;;;0.90;;
10896;SDS011;5501;51.176;6.470;2022-12-29T16:15:45;6.38;;;1.60;;
10896;SDS011;5501;51.176;6.470;2022-12-29T16:20:46;5.10;;;1.45;;
10896;SDS011;5501;51.176;6.470;2022-12-29T16:25:47;3.90;;;1.52;;
10896;SDS011;5501;51.176;6.470;2022-12-29T16:36:30;3.33;;;1.02;;
10896;SDS011;5501;51.176;6.470;2022-12-29T16:41:32;5.38;;;1.25;;
10896;SDS011;5501;51.176;6.470;2022-12-29T16:46:34;7.05;;;1.58;;
10896;SDS011;5501;51.176;6.470;2022-12-29T16:51:35;4.95;;;1.40;;
10896;SDS011;5501;51.176;6.470;2022-12-29T16:56:37;8.63;;;2.30;;
10896;SDS011;5501;51.176;6.470;2022-12-29T17:01:44;2.63;;;1.05;;
10896;SDS011;5501;51.176;6.470;2022-12-29T17:06:46;10.70;;;1.65;;
10896;SDS011;5501;51.176;6.470;2022-12-29T17:11:48;8.98;;;2.13;;
10896;SDS011;5501;51.176;6.470;2022-12-29T17:17:04;6.40;;;1.85;;
10896;SDS011;5501;51.176;6.470;2022-12-29T17:22:09;5.60;;;1.52;;
10896;SDS011;5501;51.176;6.470;2022-12-29T17:27:20;4.38;;;1.55;;
10896;SDS011;5501;51.176;6.470;2022-12-29T17:32:22;2.70;;;1.13;;
10896;SDS011;5501;51.176;6.470;2022-12-29T17:42:25;3.55;;;1.02;;
10896;SDS011;5501;51.176;6.470;2022-12-29T17:47:27;4.07;;;1.00;;
10896;SDS011;5501;51.176;6.470;2022-12-29T17:52:28;5.57;;;2.65;;
10896;SDS011;5501;51.176;6.470;2022-12-29T17:57:29;2.10;;;1.20;;
10896;SDS011;5501;51.176;6.470;2022-12-29T18:02:31;7.25;;;1.90;;
10896;SDS011;5501;51.176;6.470;2022-12-29T18:07:32;5.13;;;1.73;;
10896;SDS011;5501;51.176;6.470;2022-12-29T18:12:37;7.18;;;1.88;;
10896;SDS011;5501;51.176;6.470;2022-12-29T18:17:39;3.28;;;1.27;;
10896;SDS011;5501;51.176;6.470;2022-12-29T18:22:40;8.25;;;1.55;;
10896;SDS011;5501;51.176;6.470;2022-12-29T18:27:42;8.23;;;1.25;;
10896;SDS011;5501;51.176;6.470;2022-12-29T18:32:43;5.40;;;1.98;;
10896;SDS011;5501;51.176;6.470;2022-12-29T18:37:44;9.15;;;2.40;;
10896;SDS011;5501;51.176;6.470;2022-12-29T18:42:46;3.67;;;1.63;;
10896;SDS011;5501;51.176;6.470;2022-12-29T18:47:47;10.95;;;1.98;;
10896;SDS011;5501;51.176;6.470;2022-12-29T18:52:49;5.80;;;1.90;;
10896;SDS011;5501;51.176;6.470;2022-12-29T18:57:50;6.07;;;1.80;;
10896;SDS011;5501;51.176;6.470;2022-12-29T19:02:51;3.67;;;1.00;;
10896;SDS011;5501;51.176;6.470;2022-12-29T19:07:53;5.85;;;1.60;;
10896;SDS011;5501;51.176;6.470;2022-12-29T19:12:54;5.82;;;1.38;;
10896;SDS011;5501;51.176;6.470;2022-12-29T19:17:57;4.13;;;1.30;;
10896;SDS011;5501;51.176;6.470;2022-12-29T19:23:20;2.40;;;1.70;;
10896;SDS011;5501;51.176;6.470;2022-12-29T19:28:25;5.28;;;1.92;;
10896;SDS011;5501;51.176;6.470;2022-12-29T19:33:27;6.22;;;1.33;;
10896;SDS011;5501;51.176;6.470;2022-12-29T19:38:28;6.43;;;1.48;;
10896;SDS011;5501;51.176;6.470;2022-12-29T19:43:30;5.63;;;1.50;;
10896;SDS011;5501;51.176;6.470;2022-12-29T19:48:31;8.18;;;2.17;;
10896;SDS011;5501;51.176;6.470;2022-12-29T19:53:33;7.82;;;1.60;;
10896;SDS011;5501;51.176;6.470;2022-12-29T19:58:35;5.10;;;1.65;;
10896;SDS011;5501;51.176;6.470;2022-12-29T20:03:37;3.92;;;1.30;;
10896;SDS011;5501;51.176;6.470;2022-12-29T20:08:39;7.38;;;1.77;;
10896;SDS011;5501;51.176;6.470;2022-12-29T20:13:40;4.75;;;1.95;;
10896;SDS011;5501;51.176;6.470;2022-12-29T20:18:42;5.80;;;1.98;;
10896;SDS011;5501;51.176;6.470;2022-12-29T20:23:44;10.73;;;2.72;;
10896;SDS011;5501;51.176;6.470;2022-12-29T20:28:45;7.60;;;1.80;;
10896;SDS011;5501;51.176;6.470;2022-12-29T20:33:47;4.82;;;1.60;;
10896;SDS011;5501;51.176;6.470;2022-12-29T20:38:49;6.82;;;1.88;;
10896;SDS011;5501;51.176;6.470;2022-12-29T20:43:51;9.38;;;2.22;;
10896;SDS011;5501;51.176;6.470;2022-12-29T20:48:55;6.25;;;1.90;;
10896;SDS011;5501;51.176;6.470;2022-12-29T20:53:57;6.18;;;2.05;;
10896;SDS011;5501;51.176;6.470;2022-12-29T20:58:58;7.95;;;1.83;;
10896;SDS011;5501;51.176;6.470;2022-12-29T21:04:19;7.38;;;1.65;;
10896;SDS011;5501;51.176;6.470;2022-12-29T21:09:21;7.45;;;2.63;;
10896;SDS011;5501;51.176;6.470;2022-12-29T21:14:23;8.00;;;2.00;;
10896;SDS011;5501;51.176;6.470;2022-12-29T21:19:24;6.55;;;1.88;;
10896;SDS011;5501;51.176;6.470;2022-12-29T21:24:25;2.95;;;1.65;;
10896;SDS011;5501;51.176;6.470;2022-12-29T21:29:27;5.10;;;1.63;;
10896;SDS011;5501;51.176;6.470;2022-12-29T21:34:28;7.55;;;1.65;;
10896;SDS011;5501;51.176;6.470;2022-12-29T21:39:30;11.88;;;2.50;;
10896;SDS011;5501;51.176;6.470;2022-12-29T21:44:31;6.70;;;1.55;;
10896;SDS011;5501;51.176;6.470;2022-12-29T21:49:51;7.82;;;1.83;;
10896;SDS011;5501;51.176;6.470;2022-12-29T21:54:53;8.75;;;2.05;;
10896;SDS011;5501;51.176;6.470;2022-12-29T22:00:00;3.72;;;1.35;;
10896;SDS011;5501;51.176;6.470;2022-12-29T22:05:20;5.05;;;1.50;;
10896;SDS011;5501;51.176;6.470;2022-12-29T22:10:44;3.25;;;1.65;;
10896;SDS011;5501;51.176;6.470;2022-12-29T22:16:06;14.00;;;2.10;;
10896;SDS011;5501;51.176;6.470;2022-12-29T22:21:09;12.75;;;1.90;;
10896;SDS011;5501;51.176;6.470;2022-12-29T22:26:11;8.35;;;1.95;;
10896;SDS011;5501;51.176;6.470;2022-12-29T22:31:20;7.30;;;2.00;;
10896;SDS011;5501;51.176;6.470;2022-12-29T22:36:24;8.23;;;1.40;;
10896;SDS011;5501;51.176;6.470;2022-12-29T22:41:26;7.72;;;1.48;;
10896;SDS011;5501;51.176;6.470;2022-12-29T22:46:27;6.45;;;1.35;;
10896;SDS011;5501;51.176;6.470;2022-12-29T22:51:28;6.10;;;1.73;;
10896;SDS011;5501;51.176;6.470;2022-12-29T22:56:30;4.45;;;1.30;;
10896;SDS011;5501;51.176;6.470;2022-12-29T23:01:31;10.75;;;2.13;;
10896;SDS011;5501;51.176;6.470;2022-12-29T23:06:33;12.88;;;2.53;;
10896;SDS011;5501;51.176;6.470;2022-12-29T23:11:34;5.05;;;1.80;;
10896;SDS011;5501;51.176;6.470;2022-12-29T23:16:36;9.32;;;2.10;;
10896;SDS011;5501;51.176;6.470;2022-12-29T23:21:37;5.32;;;2.13;;
10896;SDS011;5501;51.176;6.470;2022-12-29T23:26:40;8.90;;;2.05;;
10896;SDS011;5501;51.176;6.470;2022-12-29T23:31:42;8.25;;;1.60;;
10896;SDS011;5501;51.176;6.470;2022-12-29T23:36:43;10.77;;;2.50;;
10896;SDS011;5501;51.176;6.470;2022-12-29T23:41:45;5.03;;;2.10;;
10896;SDS011;5501;51.176;6.470;2022-12-29T23:46:47;9.88;;;2.10;;
10896;SDS011;5501;51.176;6.470;2022-12-29T23:51:49;5.20;;;1.50;;
10896;SDS011;5501;51.176;6.470;2022-12-29T23:56:50;7.05;;;1.90;;
